LFKJ/AJA METAR and TAF weather

Enter ICAO airport designator
Station Type Date Time Source
LFKJ METAR 2020/04/06 15:00 UTC NOAA

LFKJ 061500Z AUTO 23009KT CAVOK 18/11 Q1024 NOSIG


Station Type Date Time Source
LFKJ Decoded METAR 2020/04/06 15:00 UTC NOAA

Ajaccio, France (LFKJ) 41-55N 008-48E 9M
Apr 06, 2020 - 11:00 AM EDT / 2020.04.06 1500 UTC
Wind: from the SW (230 degrees) at 10 MPH (9 KT):0
Visibility: greater than 7 mile(s):0
Temperature: 64 F (18 C)
Dew Point: 51 F (11 C)
Relative Humidity: 63%
Pressure (altimeter): 30.24 in. Hg (1024 hPa)
ob: LFKJ 061500Z AUTO 23009KT CAVOK 18/11 Q1024 NOSIG
cycle: 15

Station Type Date Time Source
LFKJ TAF 2020/04/06 15:26 UTC NOAA

TAF LFKJ 061400Z 0615/0715 22010KT CAVOK
BECMG 0618/0621 06005KT

Example: see airport list